Impacts METAR Board
IDs:

KSEA - Seattle-Tacoma Intl, WA, US

Updated at: 1700 UTC 23 Jul 2018
Potential Impact None Slight Moderate High
Time 23/05Z 23/06Z 23/07Z 23/08Z 23/09Z 23/10Z 23/11Z 23/12Z 23/13Z 23/14Z 23/15Z 23/16Z 23/17Z
Temp76 73 73 72 70 67 68 64 64 67 69 74 75
Dewpt48 52 54 53 52 50 51 51 52 53 54 55 54
Altim30.11 30.11 30.12 30.12 30.12 30.12 30.11 30.11 30.12 30.13 30.13 30.14 30.13
VIS10 10 10 10 10 10 10 10 10 10 10 10 10
CIG-- -- -- -- -- -- -- -- -- -- -- -- --
CoverCLRCLRCLRCLRCLRCLRCLRCLRCLRCLRCLRCLRCLR
FltCatVFRVFRVFRVFRVFRVFRVFRVFRVFRVFRVFRVFRVFR
WX--------------------------
WDir360360304030050036035000280
WSpd9 8 10 9 8 0 3 0 3 3 0 3 5
WGst-- -- -- -- -- -- -- -- -- -- -- -- --
Raw hourly METARs
KSEA 230453Z 36009KT 10SM CLR 24/09 A3011 RMK AO2 SLP199 T02440089
KSEA 230553Z 36008KT 10SM CLR 23/11 A3011 RMK AO2 SLP201 T02280111 10300 20228 53005
KSEA 230653Z 03010KT 10SM CLR 23/12 A3012 RMK AO2 SLP202 T02280122
KSEA 230753Z 04009KT 10SM CLR 22/12 A3012 RMK AO2 SLP202 T02220117 403000161
KSEA 230853Z 03008KT 10SM CLR 21/11 A3012 RMK AO2 SLP201 T02110111 50000
KSEA 230953Z 00000KT 10SM CLR 19/10 A3012 RMK AO2 SLP201 T01940100
KSEA 231053Z 05003KT 10SM CLR 20/11 A3011 RMK AO2 SLP200 T02000106
KSEA 231153Z 00000KT 10SM CLR 18/11 A3011 RMK AO2 SLP201 T01780106 10228 20172 55001
KSEA 231253Z 36003KT 10SM CLR 18/11 A3012 RMK AO2 SLP203 T01780111
KSEA 231353Z 35003KT 10SM CLR 19/12 A3013 RMK AO2 SLP206 T01940117
KSEA 231453Z 00000KT 10SM CLR 21/12 A3013 RMK AO2 SLP207 T02060122 51006
KSEA 231553Z VRB03KT 10SM CLR 23/13 A3014 RMK AO2 SLP209 T02330128
KSEA 231653Z 28005KT 10SM CLR 24/12 A3013 RMK AO2 SLP206 T02390122



Page loaded:  17:14 UTC  |   10:14 AM Pacific  |   11:14 AM Mountain  |   12:14 PM Central  |   01:14 PM Eastern

 

ADVISORIES

FORECASTS

FORECASTS

OBSERVATIONS

USER TOOLS

ABOUT US